»·PEaware :: N4269T KHQM-S23

N4269T :: KHQM-S23

FLIGHT INFORMATION

Flight Status: Arrived
Operator: Privately registered:
United States
More flights under this callsign
Pilot: Chuck O. (4337)
Aircraft: Unknown
(B60T)
More flights by this aircraft type
Origin: KHQM Bowerman
United States
Destination: S23 Ione Mun
United States
More flights between these airports :: More routes between these airports
Route: +ELMAA J70 EPH GEG V112 DIANN
File this flight plan on PilotEdge
Remarks: KHQM ODP AFTER GEG WILL REQ DESCENT TO VFR (ABC WA LEG 8)
Altitude:
(Current/Filed)
23,000ft
Speed:
(Current/Filed)
260kts
Departed: 16-May-20 08:03 AM
Arrived: 16-May-20 09:27 AM
Distance/Time
Traveled:
283nm/1:24
Distance/Time
To Go:
Arrived

Flight Plot

Page will automatically refresh every two minutes.

Flight plan parsing failed; only flown route is shown


Map Options




Map Legend


Flown Route
Filed Route
Departure Airport
Arrival Airport
Navaid (VOR, NDB)
Fix

Horizontal Profiles

Position Reports

Time Latitude Longitude Heading Altitude Ground
Speed
16-May-20 07:47 46.973145 -123.931076 245 17ft 0kts
16-May-20 07:48 46.973144 -123.931080 245 17ft 0kts
16-May-20 07:49 46.973142 -123.931084 245 17ft 0kts
16-May-20 07:49 46.973141 -123.931088 245 17ft 0kts
16-May-20 07:51 46.973140 -123.931093 245 17ft 0kts
16-May-20 07:52 46.973138 -123.931097 245 17ft 0kts
16-May-20 07:52 46.973137 -123.931100 245 17ft 0kts
16-May-20 07:54 46.973136 -123.931105 245 17ft 0kts
16-May-20 07:55 46.973134 -123.931109 244 17ft 0kts
16-May-20 07:55 46.972660 -123.933022 260 17ft 13kts
16-May-20 07:56 46.971941 -123.939012 260 17ft 15kts
16-May-20 07:58 46.971030 -123.945933 229 17ft 10kts
16-May-20 07:58 46.970953 -123.946031 218 17ft 0kts
16-May-20 07:59 46.970953 -123.946031 218 17ft 0kts
16-May-20 08:00 46.970953 -123.946031 218 17ft 0kts
16-May-20 08:01 46.970076 -123.945792 82 17ft 0kts
16-May-20 08:02 46.972329 -123.916432 115 771ft 114kts
16-May-20 08:03 46.947134 -123.874057 140 2316ft 150kts
16-May-20 08:04 46.946822 -123.822892 43 4135ft 182kts
16-May-20 08:05 46.989544 -123.773518 40 5654ft 204kts
16-May-20 08:06 47.033601 -123.723422 43 7760ft 192kts
16-May-20 08:07 47.063615 -123.663241 68 9951ft 178kts
16-May-20 08:08 47.085433 -123.597925 70 12152ft 184kts
16-May-20 08:09 47.108604 -123.528170 70 14363ft 193kts
16-May-20 08:10 47.132601 -123.456203 69 16570ft 198kts
16-May-20 08:11 47.156163 -123.382349 74 18768ft 199kts
16-May-20 08:12 47.175776 -123.306410 75 20958ft 197kts
16-May-20 08:13 47.195603 -123.231246 76 22844ft 212kts
16-May-20 08:14 47.220359 -123.137203 74 22962ft 267kts
16-May-20 08:15 47.248055 -123.032437 73 22958ft 279kts
16-May-20 08:16 47.276343 -122.924812 73 22961ft 284kts
16-May-20 08:17 47.304819 -122.815903 73 22973ft 285kts
16-May-20 08:18 47.330328 -122.717873 73 22980ft 286kts
16-May-20 08:19 47.354731 -122.623685 73 22982ft 286kts
16-May-20 08:20 47.383092 -122.513746 73 22981ft 287kts
16-May-20 08:21 47.411388 -122.403513 73 22977ft 287kts
16-May-20 08:22 47.435120 -122.292125 92 22975ft 279kts
16-May-20 08:23 47.434130 -122.178057 96 22976ft 277kts
16-May-20 08:24 47.433307 -122.063951 96 22977ft 277kts
16-May-20 08:25 47.432201 -121.949864 95 22981ft 278kts
16-May-20 08:26 47.430958 -121.835601 96 22989ft 278kts
16-May-20 08:27 47.429592 -121.721321 96 23000ft 278kts
16-May-20 08:28 47.428113 -121.606910 96 23012ft 278kts
16-May-20 08:29 47.426520 -121.492504 96 23023ft 279kts
16-May-20 08:30 47.424807 -121.377867 96 23029ft 279kts
16-May-20 08:31 47.422974 -121.262791 96 23034ft 280kts
16-May-20 08:32 47.421031 -121.147459 95 23035ft 287kts
16-May-20 08:33 47.418923 -121.027773 95 23035ft 292kts
16-May-20 08:34 47.416657 -120.907851 95 23035ft 293kts
16-May-20 08:35 47.414254 -120.787705 95 23037ft 293kts
16-May-20 08:36 47.411711 -120.667317 95 23039ft 293kts
16-May-20 08:37 47.409046 -120.546983 95 23047ft 293kts
16-May-20 08:38 47.406254 -120.426722 95 23053ft 293kts
16-May-20 08:39 47.403327 -120.306163 95 23055ft 293kts
16-May-20 08:40 47.400276 -120.185657 95 23056ft 293kts
16-May-20 08:41 47.397095 -120.065095 95 23056ft 293kts
16-May-20 08:42 47.393790 -119.944795 95 23056ft 294kts
16-May-20 08:43 47.390353 -119.824067 95 23056ft 295kts
16-May-20 08:44 47.386778 -119.703131 95 23056ft 295kts
16-May-20 08:45 47.383069 -119.581969 95 23056ft 295kts
16-May-20 08:46 47.379234 -119.460935 95 23057ft 295kts
16-May-20 08:47 47.387357 -119.339909 81 23059ft 297kts
16-May-20 08:48 47.400810 -119.219220 81 23065ft 298kts
16-May-20 08:49 47.414070 -119.098620 81 23068ft 298kts
16-May-20 08:50 47.427227 -118.977657 81 23069ft 298kts
16-May-20 08:51 47.440249 -118.856686 81 23071ft 298kts
16-May-20 08:52 47.453117 -118.735904 81 23074ft 298kts
16-May-20 08:53 47.465879 -118.614633 81 23076ft 294kts
16-May-20 08:54 47.477582 -118.501846 81 22754ft 274kts
16-May-20 08:55 47.489490 -118.386483 81 21347ft 290kts
16-May-20 08:56 47.501467 -118.269524 81 19866ft 276kts
16-May-20 08:57 47.512349 -118.163484 81 18553ft 250kts
16-May-20 08:58 47.522395 -118.063733 81 17254ft 242kts
16-May-20 08:59 47.532145 -117.965809 82 15955ft 239kts
16-May-20 09:00 47.541657 -117.869165 83 15045ft 238kts
16-May-20 09:01 47.550108 -117.781617 83 15022ft 241kts
16-May-20 09:02 47.559597 -117.683432 83 15022ft 240kts
16-May-20 09:03 47.594298 -117.606116 19 15034ft 240kts
16-May-20 09:04 47.654350 -117.561975 26 15030ft 241kts
16-May-20 09:05 47.714102 -117.516495 25 15035ft 241kts
16-May-20 09:06 47.775434 -117.470540 26 14042ft 243kts
16-May-20 09:07 47.834683 -117.426186 26 13091ft 233kts
16-May-20 09:08 47.891010 -117.384043 26 13041ft 220kts
16-May-20 09:09 47.946591 -117.342270 26 13044ft 229kts
16-May-20 09:10 48.004141 -117.298906 26 13044ft 232kts
16-May-20 09:11 48.064251 -117.253672 26 11952ft 243kts
16-May-20 09:12 48.124134 -117.208464 27 10732ft 237kts
16-May-20 09:13 48.184875 -117.186393 343 9516ft 227kts
16-May-20 09:14 48.245171 -117.212670 343 8302ft 224kts
16-May-20 09:15 48.302842 -117.237297 344 7467ft 191kts
16-May-20 09:16 48.348495 -117.256934 343 7494ft 157kts
16-May-20 09:17 48.389097 -117.274477 343 7498ft 146kts
16-May-20 09:18 48.428711 -117.291568 344 7514ft 163kts
16-May-20 09:19 48.478609 -117.313066 344 7170ft 194kts
16-May-20 09:20 48.533951 -117.337449 343 6024ft 201kts
16-May-20 09:21 48.578102 -117.356393 343 5123ft 133kts
16-May-20 09:22 48.620898 -117.375845 341 4347ft 171kts
16-May-20 09:23 48.657631 -117.397091 343 3196ft 121kts
16-May-20 09:24 48.688108 -117.406122 349 2444ft 106kts
16-May-20 09:25 48.710402 -117.413754 347 2110ft 55kts
16-May-20 09:26 48.713799 -117.414491 35 2110ft 5kts
16-May-20 09:27 48.713885 -117.414148 174 2110ft 0kts
16-May-20 09:28 48.713885 -117.414148 174 2110ft 0kts
16-May-20 09:30 48.713885 -117.414148 174 2110ft 0kts
16-May-20 09:31 48.713885 -117.414148 174 2110ft 0kts

Navigation Log

Ident Type
Flight plan parsing failed, navigation log unavailable